sensor_id;sensor_type;location;lat;lon;timestamp;P1;durP1;ratioP1;P2;durP2;ratioP2
22965;SDS011;11649;48.090;9.754;2022-08-11T00:03:30;3.00;;;2.35;;
22965;SDS011;11649;48.090;9.754;2022-08-11T00:06:09;5.18;;;2.60;;
22965;SDS011;11649;48.090;9.754;2022-08-11T00:08:39;5.88;;;2.42;;
22965;SDS011;11649;48.090;9.754;2022-08-11T00:11:08;3.10;;;2.60;;
22965;SDS011;11649;48.090;9.754;2022-08-11T00:13:39;4.47;;;2.67;;
22965;SDS011;11649;48.090;9.754;2022-08-11T00:18:44;3.15;;;2.50;;
22965;SDS011;11649;48.090;9.754;2022-08-11T00:21:16;5.05;;;2.88;;
22965;SDS011;11649;48.090;9.754;2022-08-11T00:24:05;3.95;;;2.50;;
22965;SDS011;11649;48.090;9.754;2022-08-11T00:26:33;4.55;;;2.50;;
22965;SDS011;11649;48.090;9.754;2022-08-11T00:29:09;4.43;;;2.60;;
22965;SDS011;11649;48.090;9.754;2022-08-11T00:31:37;5.30;;;2.50;;
22965;SDS011;11649;48.090;9.754;2022-08-11T00:34:10;2.60;;;2.40;;
22965;SDS011;11649;48.090;9.754;2022-08-11T00:36:42;5.75;;;2.70;;
22965;SDS011;11649;48.090;9.754;2022-08-11T00:39:14;4.15;;;2.50;;
22965;SDS011;11649;48.090;9.754;2022-08-11T00:42:03;3.95;;;2.92;;
22965;SDS011;11649;48.090;9.754;2022-08-11T00:58:43;5.97;;;2.90;;
22965;SDS011;11649;48.090;9.754;2022-08-11T01:06:22;7.80;;;3.30;;
22965;SDS011;11649;48.090;9.754;2022-08-11T01:12:27;6.40;;;3.38;;
22965;SDS011;11649;48.090;9.754;2022-08-11T01:24:47;3.08;;;2.78;;
22965;SDS011;11649;48.090;9.754;2022-08-11T01:45:25;3.63;;;2.88;;
22965;SDS011;11649;48.090;9.754;2022-08-11T02:07:09;5.97;;;3.30;;
22965;SDS011;11649;48.090;9.754;2022-08-11T02:15:28;7.63;;;3.85;;
22965;SDS011;11649;48.090;9.754;2022-08-11T02:18:20;4.53;;;3.50;;
22965;SDS011;11649;48.090;9.754;2022-08-11T02:21:14;5.90;;;3.30;;
22965;SDS011;11649;48.090;9.754;2022-08-11T02:24:10;5.03;;;3.70;;
22965;SDS011;11649;48.090;9.754;2022-08-11T02:26:49;5.63;;;3.40;;
22965;SDS011;11649;48.090;9.754;2022-08-11T02:32:35;6.50;;;4.00;;
22965;SDS011;11649;48.090;9.754;2022-08-11T02:38:30;5.53;;;3.72;;
22965;SDS011;11649;48.090;9.754;2022-08-11T02:41:14;4.70;;;4.07;;
22965;SDS011;11649;48.090;9.754;2022-08-11T02:49:57;5.60;;;4.00;;
22965;SDS011;11649;48.090;9.754;2022-08-11T02:52:43;5.03;;;4.00;;
22965;SDS011;11649;48.090;9.754;2022-08-11T02:55:20;7.65;;;3.72;;
22965;SDS011;11649;48.090;9.754;2022-08-11T03:00:52;7.25;;;3.88;;
22965;SDS011;11649;48.090;9.754;2022-08-11T03:03:30;7.78;;;3.88;;
22965;SDS011;11649;48.090;9.754;2022-08-11T03:06:08;4.40;;;3.80;;
22965;SDS011;11649;48.090;9.754;2022-08-11T03:09:05;6.30;;;3.83;;
22965;SDS011;11649;48.090;9.754;2022-08-11T03:12:29;5.95;;;3.92;;
22965;SDS011;11649;48.090;9.754;2022-08-11T03:15:15;5.63;;;4.15;;
22965;SDS011;11649;48.090;9.754;2022-08-11T03:21:04;5.18;;;3.97;;
22965;SDS011;11649;48.090;9.754;2022-08-11T03:23:34;8.77;;;4.05;;
22965;SDS011;11649;48.090;9.754;2022-08-11T03:29:10;9.88;;;4.32;;
22965;SDS011;11649;48.090;9.754;2022-08-11T03:34:32;5.57;;;3.95;;
22965;SDS011;11649;48.090;9.754;2022-08-11T03:42:42;5.55;;;3.80;;
22965;SDS011;11649;48.090;9.754;2022-08-11T03:45:35;8.88;;;4.30;;
22965;SDS011;11649;48.090;9.754;2022-08-11T03:51:17;5.13;;;3.83;;
22965;SDS011;11649;48.090;9.754;2022-08-11T03:59:32;4.38;;;3.88;;
22965;SDS011;11649;48.090;9.754;2022-08-11T04:10:31;5.82;;;4.28;;
22965;SDS011;11649;48.090;9.754;2022-08-11T04:13:58;5.32;;;4.20;;
22965;SDS011;11649;48.090;9.754;2022-08-11T04:16:29;5.53;;;4.35;;
22965;SDS011;11649;48.090;9.754;2022-08-11T04:30:15;6.32;;;4.40;;
22965;SDS011;11649;48.090;9.754;2022-08-11T05:12:40;5.60;;;4.40;;
22965;SDS011;11649;48.090;9.754;2022-08-11T05:15:22;5.40;;;4.15;;
22965;SDS011;11649;48.090;9.754;2022-08-11T05:18:21;7.60;;;4.28;;
22965;SDS011;11649;48.090;9.754;2022-08-11T05:21:10;6.03;;;4.15;;
22965;SDS011;11649;48.090;9.754;2022-08-11T05:24:16;5.63;;;4.50;;
22965;SDS011;11649;48.090;9.754;2022-08-11T05:27:06;5.85;;;4.30;;
22965;SDS011;11649;48.090;9.754;2022-08-11T05:33:04;6.80;;;4.47;;
22965;SDS011;11649;48.090;9.754;2022-08-11T05:36:01;7.60;;;4.72;;
22965;SDS011;11649;48.090;9.754;2022-08-11T05:38:37;6.07;;;4.45;;
22965;SDS011;11649;48.090;9.754;2022-08-11T05:41:24;5.82;;;4.50;;
22965;SDS011;11649;48.090;9.754;2022-08-11T05:44:16;7.68;;;4.40;;
22965;SDS011;11649;48.090;9.754;2022-08-11T05:47:03;6.10;;;4.45;;
22965;SDS011;11649;48.090;9.754;2022-08-11T05:49:49;6.82;;;4.32;;
22965;SDS011;11649;48.090;9.754;2022-08-11T05:52:43;10.00;;;4.75;;
22965;SDS011;11649;48.090;9.754;2022-08-11T05:55:40;8.45;;;4.57;;
22965;SDS011;11649;48.090;9.754;2022-08-11T05:58:37;4.78;;;4.32;;
22965;SDS011;11649;48.090;9.754;2022-08-11T06:01:08;5.40;;;4.50;;
22965;SDS011;11649;48.090;9.754;2022-08-11T06:03:41;6.18;;;4.32;;
22965;SDS011;11649;48.090;9.754;2022-08-11T06:06:29;6.00;;;4.40;;
22965;SDS011;11649;48.090;9.754;2022-08-11T06:08:56;5.63;;;4.20;;
22965;SDS011;11649;48.090;9.754;2022-08-11T06:11:24;7.22;;;4.57;;
22965;SDS011;11649;48.090;9.754;2022-08-11T06:14:10;5.10;;;4.40;;
22965;SDS011;11649;48.090;9.754;2022-08-11T06:16:38;6.78;;;4.43;;
22965;SDS011;11649;48.090;9.754;2022-08-11T06:19:07;6.47;;;4.60;;
22965;SDS011;11649;48.090;9.754;2022-08-11T06:21:35;4.43;;;3.95;;
22965;SDS011;11649;48.090;9.754;2022-08-11T06:24:04;9.93;;;5.00;;
22965;SDS011;11649;48.090;9.754;2022-08-11T06:26:37;9.07;;;4.53;;
22965;SDS011;11649;48.090;9.754;2022-08-11T06:29:26;7.68;;;4.53;;
22965;SDS011;11649;48.090;9.754;2022-08-11T06:32:12;5.72;;;4.38;;
22965;SDS011;11649;48.090;9.754;2022-08-11T06:43:53;5.68;;;4.60;;
22965;SDS011;11649;48.090;9.754;2022-08-11T06:46:33;7.10;;;4.22;;
22965;SDS011;11649;48.090;9.754;2022-08-11T06:49:08;9.73;;;4.72;;
22965;SDS011;11649;48.090;9.754;2022-08-11T06:51:59;6.70;;;4.07;;
22965;SDS011;11649;48.090;9.754;2022-08-11T06:54:31;8.55;;;4.38;;
22965;SDS011;11649;48.090;9.754;2022-08-11T06:57:02;9.35;;;4.30;;
22965;SDS011;11649;48.090;9.754;2022-08-11T06:59:57;5.88;;;4.43;;
22965;SDS011;11649;48.090;9.754;2022-08-11T07:05:36;8.65;;;4.40;;
22965;SDS011;11649;48.090;9.754;2022-08-11T07:14:10;6.40;;;4.30;;
22965;SDS011;11649;48.090;9.754;2022-08-11T07:17:03;6.80;;;4.45;;
22965;SDS011;11649;48.090;9.754;2022-08-11T07:19:36;7.28;;;4.15;;
22965;SDS011;11649;48.090;9.754;2022-08-11T07:22:23;6.60;;;4.60;;
22965;SDS011;11649;48.090;9.754;2022-08-11T07:25:13;4.53;;;3.72;;
22965;SDS011;11649;48.090;9.754;2022-08-11T07:28:01;4.10;;;3.70;;
22965;SDS011;11649;48.090;9.754;2022-08-11T07:30:55;6.03;;;4.10;;
22965;SDS011;11649;48.090;9.754;2022-08-11T07:33:28;4.93;;;3.88;;
22965;SDS011;11649;48.090;9.754;2022-08-11T07:36:21;7.65;;;3.95;;
22965;SDS011;11649;48.090;9.754;2022-08-11T07:38:54;3.83;;;3.40;;
22965;SDS011;11649;48.090;9.754;2022-08-11T07:41:23;8.13;;;3.38;;
22965;SDS011;11649;48.090;9.754;2022-08-11T07:43:51;4.13;;;3.40;;
22965;SDS011;11649;48.090;9.754;2022-08-11T07:46:35;6.45;;;3.65;;
22965;SDS011;11649;48.090;9.754;2022-08-11T07:49:27;6.07;;;3.95;;
22965;SDS011;11649;48.090;9.754;2022-08-11T07:52:15;6.00;;;4.05;;
22965;SDS011;11649;48.090;9.754;2022-08-11T07:54:54;5.72;;;3.70;;
22965;SDS011;11649;48.090;9.754;2022-08-11T07:57:26;5.60;;;3.47;;
22965;SDS011;11649;48.090;9.754;2022-08-11T08:01:17;5.47;;;3.30;;
22965;SDS011;11649;48.090;9.754;2022-08-11T08:03:47;6.70;;;3.80;;
22965;SDS011;11649;48.090;9.754;2022-08-11T08:06:34;9.35;;;3.83;;
22965;SDS011;11649;48.090;9.754;2022-08-11T08:09:21;6.30;;;3.78;;
22965;SDS011;11649;48.090;9.754;2022-08-11T08:12:08;6.47;;;3.90;;
22965;SDS011;11649;48.090;9.754;2022-08-11T08:14:54;6.28;;;3.40;;
22965;SDS011;11649;48.090;9.754;2022-08-11T08:17:41;5.80;;;3.47;;
22965;SDS011;11649;48.090;9.754;2022-08-11T08:20:37;4.97;;;3.50;;
22965;SDS011;11649;48.090;9.754;2022-08-11T08:23:08;5.13;;;3.70;;
22965;SDS011;11649;48.090;9.754;2022-08-11T08:25:37;5.63;;;3.92;;
22965;SDS011;11649;48.090;9.754;2022-08-11T08:28:06;9.45;;;3.75;;
22965;SDS011;11649;48.090;9.754;2022-08-11T08:30:36;6.10;;;4.13;;
22965;SDS011;11649;48.090;9.754;2022-08-11T08:33:13;4.07;;;3.47;;
22965;SDS011;11649;48.090;9.754;2022-08-11T08:35:42;6.57;;;3.75;;
22965;SDS011;11649;48.090;9.754;2022-08-11T08:38:19;4.63;;;3.60;;
22965;SDS011;11649;48.090;9.754;2022-08-11T08:40:46;7.00;;;3.90;;
22965;SDS011;11649;48.090;9.754;2022-08-11T08:43:21;10.07;;;3.65;;
22965;SDS011;11649;48.090;9.754;2022-08-11T08:45:49;7.53;;;3.40;;
22965;SDS011;11649;48.090;9.754;2022-08-11T08:48:21;5.22;;;3.60;;
22965;SDS011;11649;48.090;9.754;2022-08-11T08:50:55;4.18;;;3.25;;
22965;SDS011;11649;48.090;9.754;2022-08-11T08:53:48;9.27;;;4.90;;
22965;SDS011;11649;48.090;9.754;2022-08-11T08:56:24;9.50;;;4.35;;
22965;SDS011;11649;48.090;9.754;2022-08-11T08:58:57;4.28;;;3.25;;
22965;SDS011;11649;48.090;9.754;2022-08-11T09:01:27;5.78;;;4.18;;
22965;SDS011;11649;48.090;9.754;2022-08-11T09:03:57;5.32;;;3.60;;
22965;SDS011;11649;48.090;9.754;2022-08-11T09:06:32;7.95;;;3.53;;
22965;SDS011;11649;48.090;9.754;2022-08-11T09:09:00;4.55;;;3.47;;
22965;SDS011;11649;48.090;9.754;2022-08-11T09:11:27;5.40;;;3.53;;
22965;SDS011;11649;48.090;9.754;2022-08-11T09:14:13;6.70;;;3.50;;
22965;SDS011;11649;48.090;9.754;2022-08-11T09:16:42;4.43;;;3.45;;
22965;SDS011;11649;48.090;9.754;2022-08-11T09:19:12;4.47;;;3.35;;
22965;SDS011;11649;48.090;9.754;2022-08-11T09:21:47;5.05;;;3.42;;
22965;SDS011;11649;48.090;9.754;2022-08-11T09:24:37;6.95;;;3.78;;
22965;SDS011;11649;48.090;9.754;2022-08-11T09:27:23;4.07;;;3.08;;
22965;SDS011;11649;48.090;9.754;2022-08-11T09:29:51;5.88;;;3.65;;
22965;SDS011;11649;48.090;9.754;2022-08-11T09:32:20;4.95;;;3.70;;
22965;SDS011;11649;48.090;9.754;2022-08-11T09:34:48;5.80;;;3.58;;
22965;SDS011;11649;48.090;9.754;2022-08-11T09:37:19;7.55;;;3.60;;
22965;SDS011;11649;48.090;9.754;2022-08-11T09:40:21;6.97;;;3.40;;
22965;SDS011;11649;48.090;9.754;2022-08-11T09:42:56;7.20;;;3.25;;
22965;SDS011;11649;48.090;9.754;2022-08-11T09:45:44;7.45;;;3.60;;
22965;SDS011;11649;48.090;9.754;2022-08-11T09:48:17;5.38;;;3.45;;
22965;SDS011;11649;48.090;9.754;2022-08-11T09:50:47;6.47;;;3.50;;
22965;SDS011;11649;48.090;9.754;2022-08-11T09:53:16;4.93;;;3.42;;
22965;SDS011;11649;48.090;9.754;2022-08-11T09:56:07;4.45;;;3.10;;
22965;SDS011;11649;48.090;9.754;2022-08-11T10:01:29;4.70;;;3.25;;
22965;SDS011;11649;48.090;9.754;2022-08-11T10:04:00;5.35;;;3.20;;
22965;SDS011;11649;48.090;9.754;2022-08-11T10:06:31;4.97;;;3.20;;
22965;SDS011;11649;48.090;9.754;2022-08-11T10:09:21;5.03;;;3.25;;
22965;SDS011;11649;48.090;9.754;2022-08-11T10:11:55;6.85;;;3.30;;
22965;SDS011;11649;48.090;9.754;2022-08-11T10:14:24;7.95;;;3.58;;
22965;SDS011;11649;48.090;9.754;2022-08-11T10:17:11;7.55;;;3.40;;
22965;SDS011;11649;48.090;9.754;2022-08-11T10:19:39;5.53;;;3.42;;
22965;SDS011;11649;48.090;9.754;2022-08-11T10:22:08;4.45;;;3.65;;
22965;SDS011;11649;48.090;9.754;2022-08-11T10:24:58;5.90;;;3.40;;
22965;SDS011;11649;48.090;9.754;2022-08-11T10:27:45;8.27;;;3.25;;
22965;SDS011;11649;48.090;9.754;2022-08-11T10:30:35;5.43;;;3.20;;
22965;SDS011;11649;48.090;9.754;2022-08-11T10:33:22;5.32;;;3.30;;
22965;SDS011;11649;48.090;9.754;2022-08-11T10:36:25;6.25;;;3.22;;
22965;SDS011;11649;48.090;9.754;2022-08-11T10:38:54;4.93;;;3.17;;
22965;SDS011;11649;48.090;9.754;2022-08-11T10:41:23;5.95;;;3.40;;
22965;SDS011;11649;48.090;9.754;2022-08-11T10:44:30;4.65;;;3.13;;
22965;SDS011;11649;48.090;9.754;2022-08-11T10:47:03;3.38;;;2.80;;
22965;SDS011;11649;48.090;9.754;2022-08-11T10:49:49;5.28;;;3.30;;
22965;SDS011;11649;48.090;9.754;2022-08-11T10:52:37;4.70;;;3.10;;
22965;SDS011;11649;48.090;9.754;2022-08-11T10:55:24;6.72;;;3.22;;
22965;SDS011;11649;48.090;9.754;2022-08-11T10:58:10;5.97;;;2.97;;
22965;SDS011;11649;48.090;9.754;2022-08-11T11:00:56;4.70;;;3.20;;
22965;SDS011;11649;48.090;9.754;2022-08-11T11:03:26;6.07;;;3.35;;
22965;SDS011;11649;48.090;9.754;2022-08-11T11:05:56;6.03;;;2.92;;
22965;SDS011;11649;48.090;9.754;2022-08-11T11:08:56;4.30;;;3.00;;
22965;SDS011;11649;48.090;9.754;2022-08-11T11:11:32;4.93;;;3.10;;
22965;SDS011;11649;48.090;9.754;2022-08-11T11:14:27;4.18;;;2.75;;
22965;SDS011;11649;48.090;9.754;2022-08-11T11:17:45;4.38;;;3.10;;
22965;SDS011;11649;48.090;9.754;2022-08-11T11:20:23;8.45;;;2.97;;
22965;SDS011;11649;48.090;9.754;2022-08-11T11:23:05;5.45;;;3.10;;
22965;SDS011;11649;48.090;9.754;2022-08-11T11:25:52;4.00;;;3.10;;
22965;SDS011;11649;48.090;9.754;2022-08-11T11:29:19;6.05;;;3.00;;
22965;SDS011;11649;48.090;9.754;2022-08-11T11:37:36;4.20;;;2.95;;
22965;SDS011;11649;48.090;9.754;2022-08-11T11:40:09;5.75;;;3.30;;
22965;SDS011;11649;48.090;9.754;2022-08-11T11:42:41;7.38;;;3.50;;
22965;SDS011;11649;48.090;9.754;2022-08-11T11:45:11;6.57;;;3.10;;
22965;SDS011;11649;48.090;9.754;2022-08-11T11:47:48;5.05;;;2.72;;
22965;SDS011;11649;48.090;9.754;2022-08-11T11:50:37;5.10;;;2.90;;
22965;SDS011;11649;48.090;9.754;2022-08-11T11:53:06;4.32;;;2.60;;
22965;SDS011;11649;48.090;9.754;2022-08-11T11:55:34;6.53;;;2.70;;
22965;SDS011;11649;48.090;9.754;2022-08-11T11:58:02;3.58;;;2.63;;
22965;SDS011;11649;48.090;9.754;2022-08-11T12:00:50;3.50;;;2.38;;
22965;SDS011;11649;48.090;9.754;2022-08-11T12:03:45;5.90;;;3.03;;
22965;SDS011;11649;48.090;9.754;2022-08-11T12:06:15;4.50;;;2.50;;
22965;SDS011;11649;48.090;9.754;2022-08-11T12:08:46;7.30;;;2.60;;
22965;SDS011;11649;48.090;9.754;2022-08-11T12:11:15;15.85;;;2.97;;
22965;SDS011;11649;48.090;9.754;2022-08-11T12:14:03;3.72;;;2.88;;
22965;SDS011;11649;48.090;9.754;2022-08-11T12:16:36;5.43;;;2.75;;
22965;SDS011;11649;48.090;9.754;2022-08-11T12:19:08;4.85;;;2.70;;
22965;SDS011;11649;48.090;9.754;2022-08-11T12:21:49;4.70;;;2.60;;
22965;SDS011;11649;48.090;9.754;2022-08-11T12:24:36;4.40;;;2.80;;
22965;SDS011;11649;48.090;9.754;2022-08-11T12:27:23;4.15;;;2.55;;
22965;SDS011;11649;48.090;9.754;2022-08-11T12:29:54;4.50;;;2.65;;
22965;SDS011;11649;48.090;9.754;2022-08-11T12:32:24;3.75;;;2.63;;
22965;SDS011;11649;48.090;9.754;2022-08-11T12:34:54;3.55;;;2.50;;
22965;SDS011;11649;48.090;9.754;2022-08-11T12:37:25;2.85;;;2.25;;
22965;SDS011;11649;48.090;9.754;2022-08-11T12:39:59;2.85;;;2.45;;
22965;SDS011;11649;48.090;9.754;2022-08-11T12:43:09;6.45;;;2.80;;
22965;SDS011;11649;48.090;9.754;2022-08-11T12:46:04;4.30;;;2.40;;
22965;SDS011;11649;48.090;9.754;2022-08-11T12:48:42;2.78;;;2.50;;
22965;SDS011;11649;48.090;9.754;2022-08-11T12:51:31;4.13;;;2.83;;
22965;SDS011;11649;48.090;9.754;2022-08-11T12:57:19;3.20;;;2.88;;
22965;SDS011;11649;48.090;9.754;2022-08-11T13:00:17;7.38;;;2.90;;
22965;SDS011;11649;48.090;9.754;2022-08-11T13:03:04;4.03;;;2.60;;
22965;SDS011;11649;48.090;9.754;2022-08-11T13:05:52;4.05;;;2.60;;
22965;SDS011;11649;48.090;9.754;2022-08-11T13:08:22;7.20;;;2.60;;
22965;SDS011;11649;48.090;9.754;2022-08-11T13:10:52;4.03;;;2.58;;
22965;SDS011;11649;48.090;9.754;2022-08-11T13:13:41;3.75;;;2.80;;
22965;SDS011;11649;48.090;9.754;2022-08-11T13:16:22;6.63;;;2.38;;
22965;SDS011;11649;48.090;9.754;2022-08-11T13:18:55;4.25;;;2.80;;
22965;SDS011;11649;48.090;9.754;2022-08-11T13:21:28;4.13;;;2.40;;
22965;SDS011;11649;48.090;9.754;2022-08-11T13:23:55;7.47;;;2.83;;
22965;SDS011;11649;48.090;9.754;2022-08-11T13:26:27;3.97;;;2.50;;
22965;SDS011;11649;48.090;9.754;2022-08-11T13:29:24;8.60;;;2.80;;
22965;SDS011;11649;48.090;9.754;2022-08-11T13:31:54;4.93;;;2.80;;
22965;SDS011;11649;48.090;9.754;2022-08-11T13:34:23;4.63;;;2.75;;
22965;SDS011;11649;48.090;9.754;2022-08-11T13:36:53;10.65;;;3.40;;
22965;SDS011;11649;48.090;9.754;2022-08-11T13:39:22;6.72;;;2.53;;
22965;SDS011;11649;48.090;9.754;2022-08-11T13:41:52;4.00;;;2.65;;
22965;SDS011;11649;48.090;9.754;2022-08-11T13:44:22;3.80;;;2.33;;
22965;SDS011;11649;48.090;9.754;2022-08-11T13:46:56;3.72;;;2.47;;
22965;SDS011;11649;48.090;9.754;2022-08-11T13:49:27;7.10;;;2.50;;
22965;SDS011;11649;48.090;9.754;2022-08-11T13:51:56;2.58;;;2.20;;
22965;SDS011;11649;48.090;9.754;2022-08-11T13:54:25;5.35;;;2.30;;
22965;SDS011;11649;48.090;9.754;2022-08-11T13:56:55;5.47;;;2.40;;
22965;SDS011;11649;48.090;9.754;2022-08-11T13:59:26;4.50;;;2.17;;
22965;SDS011;11649;48.090;9.754;2022-08-11T14:02:00;6.13;;;2.47;;
22965;SDS011;11649;48.090;9.754;2022-08-11T14:04:56;3.25;;;1.98;;
22965;SDS011;11649;48.090;9.754;2022-08-11T14:07:29;5.35;;;2.20;;
22965;SDS011;11649;48.090;9.754;2022-08-11T14:10:03;5.18;;;2.17;;
22965;SDS011;11649;48.090;9.754;2022-08-11T14:12:33;4.22;;;2.10;;
22965;SDS011;11649;48.090;9.754;2022-08-11T14:15:21;6.03;;;2.17;;
22965;SDS011;11649;48.090;9.754;2022-08-11T14:17:56;5.72;;;2.05;;
22965;SDS011;11649;48.090;9.754;2022-08-11T14:20:29;4.57;;;2.13;;
22965;SDS011;11649;48.090;9.754;2022-08-11T14:23:17;4.15;;;2.05;;
22965;SDS011;11649;48.090;9.754;2022-08-11T14:25:53;3.95;;;2.10;;
22965;SDS011;11649;48.090;9.754;2022-08-11T14:28:40;5.13;;;2.13;;
22965;SDS011;11649;48.090;9.754;2022-08-11T14:31:10;3.25;;;1.90;;
22965;SDS011;11649;48.090;9.754;2022-08-11T14:33:39;4.03;;;1.90;;
22965;SDS011;11649;48.090;9.754;2022-08-11T14:36:31;3.67;;;2.00;;
22965;SDS011;11649;48.090;9.754;2022-08-11T14:39:07;3.33;;;1.90;;
22965;SDS011;11649;48.090;9.754;2022-08-11T14:41:39;2.53;;;1.73;;
22965;SDS011;11649;48.090;9.754;2022-08-11T14:44:38;3.33;;;2.00;;
22965;SDS011;11649;48.090;9.754;2022-08-11T14:47:26;3.28;;;1.65;;
22965;SDS011;11649;48.090;9.754;2022-08-11T14:49:56;4.10;;;1.95;;
22965;SDS011;11649;48.090;9.754;2022-08-11T14:52:38;3.97;;;2.00;;
22965;SDS011;11649;48.090;9.754;2022-08-11T14:55:10;4.32;;;1.92;;
22965;SDS011;11649;48.090;9.754;2022-08-11T14:57:57;2.50;;;1.92;;
22965;SDS011;11649;48.090;9.754;2022-08-11T15:00:25;3.80;;;1.80;;
22965;SDS011;11649;48.090;9.754;2022-08-11T15:02:53;3.40;;;1.80;;
22965;SDS011;11649;48.090;9.754;2022-08-11T15:05:47;2.28;;;1.75;;
22965;SDS011;11649;48.090;9.754;2022-08-11T15:08:23;3.15;;;1.85;;
22965;SDS011;11649;48.090;9.754;2022-08-11T15:11:20;3.55;;;1.90;;
22965;SDS011;11649;48.090;9.754;2022-08-11T15:14:08;4.07;;;2.05;;
22965;SDS011;11649;48.090;9.754;2022-08-11T15:16:36;3.22;;;1.95;;
22965;SDS011;11649;48.090;9.754;2022-08-11T15:19:25;4.68;;;2.10;;
22965;SDS011;11649;48.090;9.754;2022-08-11T15:22:05;3.35;;;2.00;;
22965;SDS011;11649;48.090;9.754;2022-08-11T15:24:53;4.82;;;2.08;;
22965;SDS011;11649;48.090;9.754;2022-08-11T15:27:20;4.32;;;2.08;;
22965;SDS011;11649;48.090;9.754;2022-08-11T15:30:08;2.58;;;2.10;;
22965;SDS011;11649;48.090;9.754;2022-08-11T15:33:00;4.57;;;2.15;;
22965;SDS011;11649;48.090;9.754;2022-08-11T15:35:51;4.43;;;2.08;;
22965;SDS011;11649;48.090;9.754;2022-08-11T15:38:42;3.88;;;2.00;;
22965;SDS011;11649;48.090;9.754;2022-08-11T15:41:24;9.35;;;2.40;;
22965;SDS011;11649;48.090;9.754;2022-08-11T15:44:23;2.67;;;2.15;;
22965;SDS011;11649;48.090;9.754;2022-08-11T15:47:36;3.13;;;2.20;;
22965;SDS011;11649;48.090;9.754;2022-08-11T15:50:15;4.40;;;2.17;;
22965;SDS011;11649;48.090;9.754;2022-08-11T15:52:46;3.85;;;2.00;;
22965;SDS011;11649;48.090;9.754;2022-08-11T15:55:25;5.78;;;2.20;;
22965;SDS011;11649;48.090;9.754;2022-08-11T15:57:55;4.50;;;2.05;;
22965;SDS011;11649;48.090;9.754;2022-08-11T16:00:45;3.78;;;2.30;;
22965;SDS011;11649;48.090;9.754;2022-08-11T16:03:38;2.58;;;2.10;;
22965;SDS011;11649;48.090;9.754;2022-08-11T16:06:34;8.95;;;2.20;;
22965;SDS011;11649;48.090;9.754;2022-08-11T16:09:16;3.50;;;2.00;;
22965;SDS011;11649;48.090;9.754;2022-08-11T16:11:46;3.00;;;2.20;;
22965;SDS011;11649;48.090;9.754;2022-08-11T16:14:15;7.10;;;2.50;;
22965;SDS011;11649;48.090;9.754;2022-08-11T16:17:03;4.78;;;2.08;;
22965;SDS011;11649;48.090;9.754;2022-08-11T16:19:32;2.28;;;2.00;;
22965;SDS011;11649;48.090;9.754;2022-08-11T16:22:03;3.35;;;2.10;;
22965;SDS011;11649;48.090;9.754;2022-08-11T16:24:34;3.78;;;1.95;;
22965;SDS011;11649;48.090;9.754;2022-08-11T16:27:24;2.97;;;2.00;;
22965;SDS011;11649;48.090;9.754;2022-08-11T16:29:53;4.95;;;2.50;;
22965;SDS011;11649;48.090;9.754;2022-08-11T16:32:22;3.97;;;2.60;;
22965;SDS011;11649;48.090;9.754;2022-08-11T16:34:55;4.30;;;2.13;;
22965;SDS011;11649;48.090;9.754;2022-08-11T16:37:45;5.50;;;2.30;;
22965;SDS011;11649;48.090;9.754;2022-08-11T16:40:32;4.22;;;2.30;;
22965;SDS011;11649;48.090;9.754;2022-08-11T16:42:59;4.28;;;2.30;;
22965;SDS011;11649;48.090;9.754;2022-08-11T16:45:59;3.63;;;2.13;;
22965;SDS011;11649;48.090;9.754;2022-08-11T16:48:48;3.15;;;2.15;;
22965;SDS011;11649;48.090;9.754;2022-08-11T16:51:18;6.43;;;2.40;;
22965;SDS011;11649;48.090;9.754;2022-08-11T16:53:47;7.28;;;2.38;;
22965;SDS011;11649;48.090;9.754;2022-08-11T16:56:52;3.90;;;2.15;;
22965;SDS011;11649;48.090;9.754;2022-08-11T16:59:19;6.85;;;2.30;;
22965;SDS011;11649;48.090;9.754;2022-08-11T17:07:29;3.22;;;2.20;;
22965;SDS011;11649;48.090;9.754;2022-08-11T17:10:26;2.90;;;1.92;;
22965;SDS011;11649;48.090;9.754;2022-08-11T17:13:28;3.80;;;2.00;;
22965;SDS011;11649;48.090;9.754;2022-08-11T17:16:01;6.22;;;2.30;;
22965;SDS011;11649;48.090;9.754;2022-08-11T17:18:33;5.88;;;2.30;;
22965;SDS011;11649;48.090;9.754;2022-08-11T17:21:13;2.53;;;2.30;;
22965;SDS011;11649;48.090;9.754;2022-08-11T17:23:57;3.53;;;2.47;;
22965;SDS011;11649;48.090;9.754;2022-08-11T17:26:40;4.55;;;2.20;;
22965;SDS011;11649;48.090;9.754;2022-08-11T17:32:30;3.03;;;2.20;;
22965;SDS011;11649;48.090;9.754;2022-08-11T17:35:44;3.42;;;2.03;;
22965;SDS011;11649;48.090;9.754;2022-08-11T17:38:15;4.70;;;2.30;;
22965;SDS011;11649;48.090;9.754;2022-08-11T17:40:52;3.88;;;2.25;;
22965;SDS011;11649;48.090;9.754;2022-08-11T17:43:49;3.85;;;2.22;;
22965;SDS011;11649;48.090;9.754;2022-08-11T17:46:36;5.97;;;2.22;;
22965;SDS011;11649;48.090;9.754;2022-08-11T17:49:28;3.00;;;2.20;;
22965;SDS011;11649;48.090;9.754;2022-08-11T17:52:03;3.35;;;2.40;;
22965;SDS011;11649;48.090;9.754;2022-08-11T17:54:50;2.40;;;2.20;;
22965;SDS011;11649;48.090;9.754;2022-08-11T17:58:07;4.38;;;2.30;;
22965;SDS011;11649;48.090;9.754;2022-08-11T18:00:53;3.55;;;2.50;;
22965;SDS011;11649;48.090;9.754;2022-08-11T18:03:21;5.95;;;2.30;;
22965;SDS011;11649;48.090;9.754;2022-08-11T18:05:59;5.10;;;2.58;;
22965;SDS011;11649;48.090;9.754;2022-08-11T18:08:30;2.65;;;2.20;;
22965;SDS011;11649;48.090;9.754;2022-08-11T18:11:20;3.17;;;2.30;;
22965;SDS011;11649;48.090;9.754;2022-08-11T18:14:27;3.08;;;2.20;;
22965;SDS011;11649;48.090;9.754;2022-08-11T18:17:13;3.35;;;2.13;;
22965;SDS011;11649;48.090;9.754;2022-08-11T18:19:59;5.13;;;2.40;;
22965;SDS011;11649;48.090;9.754;2022-08-11T18:22:44;3.03;;;2.35;;
22965;SDS011;11649;48.090;9.754;2022-08-11T18:25:33;5.53;;;2.33;;
22965;SDS011;11649;48.090;9.754;2022-08-11T18:28:23;6.38;;;2.38;;
22965;SDS011;11649;48.090;9.754;2022-08-11T18:31:13;3.47;;;2.35;;
22965;SDS011;11649;48.090;9.754;2022-08-11T18:34:06;6.15;;;2.35;;
22965;SDS011;11649;48.090;9.754;2022-08-11T18:37:00;2.78;;;2.42;;
22965;SDS011;11649;48.090;9.754;2022-08-11T18:39:59;5.80;;;2.20;;
22965;SDS011;11649;48.090;9.754;2022-08-11T18:42:49;5.60;;;2.40;;
22965;SDS011;11649;48.090;9.754;2022-08-11T18:45:37;3.72;;;2.30;;
22965;SDS011;11649;48.090;9.754;2022-08-11T18:48:31;5.13;;;2.50;;
22965;SDS011;11649;48.090;9.754;2022-08-11T18:51:20;6.80;;;2.95;;
22965;SDS011;11649;48.090;9.754;2022-08-11T18:54:08;7.05;;;2.83;;
22965;SDS011;11649;48.090;9.754;2022-08-11T18:56:57;10.25;;;3.60;;
22965;SDS011;11649;48.090;9.754;2022-08-11T18:59:46;5.78;;;3.05;;
22965;SDS011;11649;48.090;9.754;2022-08-11T19:02:37;8.25;;;3.40;;
22965;SDS011;11649;48.090;9.754;2022-08-11T19:05:23;9.52;;;3.30;;
22965;SDS011;11649;48.090;9.754;2022-08-11T19:08:36;5.38;;;2.95;;
22965;SDS011;11649;48.090;9.754;2022-08-11T19:11:25;5.22;;;2.70;;
22965;SDS011;11649;48.090;9.754;2022-08-11T19:14:12;3.40;;;2.58;;
22965;SDS011;11649;48.090;9.754;2022-08-11T19:16:59;5.90;;;2.80;;
22965;SDS011;11649;48.090;9.754;2022-08-11T19:20:08;5.32;;;2.72;;
22965;SDS011;11649;48.090;9.754;2022-08-11T19:22:57;6.15;;;2.53;;
22965;SDS011;11649;48.090;9.754;2022-08-11T19:25:43;4.05;;;2.50;;
22965;SDS011;11649;48.090;9.754;2022-08-11T19:28:31;5.13;;;3.00;;
22965;SDS011;11649;48.090;9.754;2022-08-11T19:31:32;5.03;;;2.70;;
22965;SDS011;11649;48.090;9.754;2022-08-11T19:34:20;4.32;;;2.40;;
22965;SDS011;11649;48.090;9.754;2022-08-11T19:37:07;4.65;;;2.78;;
22965;SDS011;11649;48.090;9.754;2022-08-11T19:39:59;3.65;;;2.65;;
22965;SDS011;11649;48.090;9.754;2022-08-11T19:42:48;3.50;;;2.60;;
22965;SDS011;11649;48.090;9.754;2022-08-11T19:45:48;4.00;;;2.90;;
22965;SDS011;11649;48.090;9.754;2022-08-11T19:48:36;4.32;;;2.90;;
22965;SDS011;11649;48.090;9.754;2022-08-11T19:51:23;3.90;;;3.10;;
22965;SDS011;11649;48.090;9.754;2022-08-11T19:54:09;4.90;;;2.78;;